Terminal Aerodrome Forecast
Issued by NWS

Home | Current Version | Previous Version | Text Only | Print | Product List | Glossary On
Versions: 1 2 3 4 5 6 7 8 9 10 11 12 13 14 15 16 17 18 19 20 21 22 23 24 25 26 27 28 29 30 31 32 33 34 35 36 37 38 39 40 41 42 43 44 45
000
FTUS44 KHGX 272320
TAFIAH
TAF
KIAH 272320Z 2800/2906 16010KT P6SM SCT050
     FM280300 15006KT P6SM SCT025
     FM280600 16004KT P6SM BKN010
     FM281600 15012KT P6SM BKN020
     FM281800 15015KT P6SM FEW035 SCT250
     FM282000 15015G25KT P6SM FEW035 SCT250
     FM290300 15015KT P6SM BKN028=

USA.gov is the U.S. government's official web portal to all federal, state and local government web resources and services.